Time;durP1;ratioP1;P1;durP2;ratioP2;P2;SDS_P1;SDS_P2;PMS_P1;PMS_P2;Temp;Humidity;BMP_temperature;BMP_pressure;BME280_temperature;BME280_humidity;BME280_pressure;Samples;Min_cycle;Max_cycle;Signal;HPM_P1;HPM_P2
2022/11/14 00:00:43;;;;;;;;;;;7.70;93.40;;;;;;5061409;28;20405;-75
2022/11/14 00:03:09;;;;;;;;;;;7.70;93.40;;;;;;5073398;28;19917;-75
2022/11/14 00:05:43;;;;;;;;;;;7.70;93.40;;;;;;5062856;28;20460;-75
2022/11/14 00:08:13;;;;;;;;;;;7.60;93.30;;;;;;5065882;28;19913;-75
2022/11/14 00:10:38;;;;;;;;;;;7.60;93.30;;;;;;5061946;28;19913;-74
2022/11/14 00:13:04;;;;;;;;;;;7.60;93.30;;;;;;5067149;28;20429;-75
2022/11/14 00:15:29;;;;;;;;;;;7.60;93.30;;;;;;5063349;28;19913;-74
2022/11/14 00:17:55;;;;;;;;;;;7.60;93.30;;;;;;5066470;28;20380;-75
2022/11/14 00:20:20;;;;;;;;;;;7.60;93.30;;;;;;5063227;28;19912;-75
2022/11/14 00:22:46;;;;;;;;;;;7.60;93.30;;;;;;5067124;28;20003;-75
2022/11/14 00:25:11;;;;;;;;;;;7.60;93.30;;;;;;5061634;28;19958;-75
2022/11/14 00:27:37;;;;;;;;;;;7.60;93.30;;;;;;5066498;28;19913;-75
2022/11/14 00:30:02;;;;;;;;;;;7.60;93.30;;;;;;5062230;28;19913;-75
2022/11/14 00:32:28;;;;;;;;;;;7.50;93.30;;;;;;5067146;28;19912;-75
2022/11/14 00:34:53;;;;;;;;;;;7.50;93.30;;;;;;5063669;28;20437;-75
2022/11/14 00:37:19;;;;;;;;;;;7.50;93.30;;;;;;5065247;28;20631;-75
2022/11/14 00:39:44;;;;;;;;;;;7.50;93.30;;;;;;5063413;28;20650;-75
2022/11/14 00:42:10;;;;;;;;;;;7.50;93.30;;;;;;5064558;28;19913;-75
2022/11/14 00:44:35;;;;;;;;;;;7.50;93.30;;;;;;5064468;28;19912;-75
2022/11/14 00:47:01;;;;;;;;;;;7.50;93.30;;;;;;5064051;28;19934;-75
2022/11/14 00:49:26;;;;;;;;;;;7.50;93.30;;;;;;5064329;28;19916;-75
2022/11/14 00:51:52;;;;;;;;;;;7.50;93.30;;;;;;5071588;28;19961;-75
2022/11/14 00:54:17;;;;;;;;;;;7.50;93.30;;;;;;5064439;28;19919;-75
2022/11/14 00:56:43;;;;;;;;;;;7.50;93.30;;;;;;5063895;28;20550;-75
2022/11/14 00:59:08;;;;;;;;;;;7.40;93.20;;;;;;5063574;28;19913;-75
2022/11/14 01:01:33;;;;;;;;;;;7.50;93.30;;;;;;5063789;28;19935;-76
2022/11/14 01:03:59;;;;;;;;;;;7.50;93.30;;;;;;5064527;28;19912;-75
2022/11/14 01:06:25;;;;;;;;;;;7.50;93.30;;;;;;5063453;28;19912;-75
2022/11/14 01:08:50;;;;;;;;;;;7.50;93.30;;;;;;5065151;28;19916;-75
2022/11/14 01:11:17;;;;;;;;;;;7.40;93.20;;;;;;5062715;28;19921;-75
2022/11/14 01:13:43;;;;;;;;;;;7.40;93.20;;;;;;5065283;28;19951;-75
2022/11/14 01:16:08;;;;;;;;;;;7.50;93.30;;;;;;5062034;28;20001;-75
2022/11/14 01:18:34;;;;;;;;;;;7.40;93.30;;;;;;5066193;28;20542;-75
2022/11/14 01:21:03;;;;;;;;;;;7.40;93.20;;;;;;5061583;28;19919;-75
2022/11/14 01:23:28;;;;;;;;;;;7.40;93.20;;;;;;5063931;28;19912;-75
2022/11/14 01:25:54;;;;;;;;;;;7.40;93.30;;;;;;5065696;28;20538;-75
2022/11/14 01:28:19;;;;;;;;;;;7.40;93.20;;;;;;5065737;28;19917;-75
2022/11/14 01:30:45;;;;;;;;;;;7.40;93.30;;;;;;5061027;28;20430;-75
2022/11/14 01:33:10;;;;;;;;;;;7.40;93.20;;;;;;5065444;28;20635;-75
2022/11/14 01:35:36;;;;;;;;;;;7.40;93.20;;;;;;5061232;28;19920;-75
2022/11/14 01:38:02;;;;;;;;;;;7.40;93.30;;;;;;5064863;28;19917;-75
2022/11/14 01:40:28;;;;;;;;;;;7.40;93.30;;;;;;5060712;28;19939;-75
2022/11/14 01:43:26;;;;;;;;;;;7.40;93.20;;;;;;5071107;28;20552;-75
2022/11/14 01:45:53;;;;;;;;;;;7.40;93.30;;;;;;5052657;28;19915;-75
2022/11/14 01:48:19;;;;;;;;;;;7.40;93.30;;;;;;5064891;28;19948;-75
2022/11/14 01:50:44;;;;;;;;;;;7.40;93.30;;;;;;5061166;28;19948;-75
2022/11/14 01:53:10;;;;;;;;;;;7.40;93.30;;;;;;5063661;28;19912;-75
2022/11/14 01:55:35;;;;;;;;;;;7.40;93.30;;;;;;5060613;28;19999;-75
2022/11/14 01:58:01;;;;;;;;;;;7.30;93.20;;;;;;5065586;28;19970;-75
2022/11/14 02:00:26;;;;;;;;;;;7.40;93.20;;;;;;5062366;28;20389;-75
2022/11/14 02:02:52;;;;;;;;;;;7.30;93.20;;;;;;5065042;28;19923;-75
2022/11/14 02:05:18;;;;;;;;;;;7.30;93.20;;;;;;5060692;28;19912;-75
2022/11/14 02:07:43;;;;;;;;;;;7.30;93.20;;;;;;5065561;28;20015;-75
2022/11/14 02:10:14;;;;;;;;;;;7.30;93.20;;;;;;5060893;28;20384;-75
2022/11/14 02:12:40;;;;;;;;;;;7.30;93.20;;;;;;5064827;28;20762;-75
2022/11/14 02:15:06;;;;;;;;;;;7.30;93.20;;;;;;5063448;28;19916;-75
2022/11/14 02:17:32;;;;;;;;;;;7.30;93.20;;;;;;5065536;28;19936;-75
2022/11/14 02:20:00;;;;;;;;;;;7.30;93.20;;;;;;5061207;28;20723;-75
2022/11/14 02:22:25;;;;;;;;;;;7.30;93.20;;;;;;5062136;28;19920;-75
2022/11/14 02:24:51;;;;;;;;;;;7.30;93.20;;;;;;5061836;28;19912;-75
2022/11/14 02:27:16;;;;;;;;;;;7.20;93.20;;;;;;5064700;28;19916;-75
2022/11/14 02:29:42;;;;;;;;;;;7.30;93.20;;;;;;5061773;28;19969;-75
2022/11/14 02:32:07;;;;;;;;;;;7.20;93.20;;;;;;5062288;28;19923;-75
2022/11/14 02:34:33;;;;;;;;;;;7.20;93.10;;;;;;5063018;28;19912;-75
2022/11/14 02:36:59;;;;;;;;;;;7.20;93.10;;;;;;5061759;28;19923;-75
2022/11/14 02:39:24;;;;;;;;;;;7.20;93.10;;;;;;5062649;28;19913;-75
2022/11/14 02:41:50;;;;;;;;;;;7.20;93.20;;;;;;5062538;28;20449;-75
2022/11/14 02:44:16;;;;;;;;;;;7.20;93.10;;;;;;5062804;28;19912;-75
2022/11/14 02:46:42;;;;;;;;;;;7.20;93.10;;;;;;5062655;28;20007;-75
2022/11/14 02:49:07;;;;;;;;;;;7.20;93.10;;;;;;5064909;28;20027;-75
2022/11/14 02:51:33;;;;;;;;;;;7.10;93.10;;;;;;5066285;28;20431;-75
2022/11/14 02:53:58;;;;;;;;;;;7.20;93.10;;;;;;5066183;28;19931;-75
2022/11/14 02:56:23;;;;;;;;;;;7.10;93.00;;;;;;5066075;28;19913;-75
2022/11/14 02:58:49;;;;;;;;;;;7.10;93.10;;;;;;5066775;28;20512;-75
2022/11/14 03:01:14;;;;;;;;;;;7.10;93.00;;;;;;5066819;28;19923;-75
2022/11/14 03:03:40;;;;;;;;;;;7.10;93.10;;;;;;5067367;28;20396;-74
2022/11/14 03:06:05;;;;;;;;;;;7.10;93.00;;;;;;5060567;28;20432;-75
2022/11/14 03:08:31;;;;;;;;;;;7.10;93.10;;;;;;5068694;28;19965;-75
2022/11/14 03:11:02;;;;;;;;;;;7.10;93.10;;;;;;5063446;28;19920;-74
2022/11/14 03:13:29;;;;;;;;;;;7.10;93.00;;;;;;5068133;28;20037;-75
2022/11/14 03:15:55;;;;;;;;;;;7.00;93.00;;;;;;5067355;28;20473;-75
2022/11/14 03:18:20;;;;;;;;;;;7.10;93.00;;;;;;5061453;28;19973;-75
2022/11/14 03:20:46;;;;;;;;;;;7.10;93.00;;;;;;5064219;28;19917;-75
2022/11/14 03:23:11;;;;;;;;;;;7.00;92.90;;;;;;5065098;28;19915;-75
2022/11/14 03:25:37;;;;;;;;;;;7.00;92.90;;;;;;5052976;28;19919;-75
2022/11/14 03:28:02;;;;;;;;;;;7.00;93.00;;;;;;5065060;28;19985;-75
2022/11/14 03:30:28;;;;;;;;;;;7.00;92.90;;;;;;5067945;28;19908;-75
2022/11/14 03:32:55;;;;;;;;;;;7.00;93.00;;;;;;5068032;28;20555;-75
2022/11/14 03:35:20;;;;;;;;;;;7.00;92.90;;;;;;5080704;28;20300;-75
2022/11/14 03:37:46;;;;;;;;;;;7.00;92.90;;;;;;5088178;28;19920;-75
2022/11/14 03:40:11;;;;;;;;;;;6.90;92.90;;;;;;5055216;28;19940;-75
2022/11/14 03:42:37;;;;;;;;;;;6.90;92.90;;;;;;5047951;28;19930;-75
2022/11/14 03:45:02;;;;;;;;;;;6.90;92.90;;;;;;5047482;28;19913;-75
2022/11/14 03:47:28;;;;;;;;;;;6.90;92.90;;;;;;5047834;28;20277;-75
2022/11/14 03:49:53;;;;;;;;;;;6.90;92.90;;;;;;5066090;28;19989;-75
2022/11/14 03:52:19;;;;;;;;;;;6.90;92.90;;;;;;5068760;28;19962;-75
2022/11/14 03:54:44;;;;;;;;;;;6.90;92.90;;;;;;5067550;28;19917;-75
2022/11/14 03:57:10;;;;;;;;;;;6.90;92.80;;;;;;5067337;28;19998;-74
2022/11/14 03:59:35;;;;;;;;;;;6.90;92.80;;;;;;5066941;28;20542;-74
2022/11/14 04:02:01;;;;;;;;;;;6.80;92.80;;;;;;5066726;28;19920;-75
2022/11/14 04:04:26;;;;;;;;;;;6.90;92.80;;;;;;5067548;28;19959;-74
2022/11/14 04:06:52;;;;;;;;;;;6.90;92.80;;;;;;5067919;28;19922;-75
2022/11/14 04:09:18;;;;;;;;;;;6.80;92.80;;;;;;5068427;28;19916;-75
2022/11/14 04:11:43;;;;;;;;;;;6.80;92.80;;;;;;5067006;28;20527;-75
2022/11/14 04:14:09;;;;;;;;;;;6.80;92.80;;;;;;5067019;28;19969;-75
2022/11/14 04:16:34;;;;;;;;;;;6.80;92.80;;;;;;5066625;28;20080;-75
2022/11/14 04:19:00;;;;;;;;;;;6.80;92.80;;;;;;5070225;28;19912;-75
2022/11/14 04:21:25;;;;;;;;;;;6.80;92.70;;;;;;5086970;28;19912;-76
2022/11/14 04:23:51;;;;;;;;;;;6.80;92.70;;;;;;5087052;28;19935;-75
2022/11/14 04:26:16;;;;;;;;;;;6.80;92.70;;;;;;5074130;28;19990;-75
2022/11/14 04:28:41;;;;;;;;;;;6.80;92.70;;;;;;5066570;28;20018;-75
2022/11/14 04:31:07;;;;;;;;;;;6.70;92.70;;;;;;5051340;28;19912;-75
2022/11/14 04:33:32;;;;;;;;;;;6.70;92.70;;;;;;5046075;28;19948;-75
2022/11/14 04:35:58;;;;;;;;;;;6.70;92.70;;;;;;5045956;28;20368;-75
2022/11/14 04:38:23;;;;;;;;;;;6.70;92.70;;;;;;5046370;28;19924;-75
2022/11/14 04:40:50;;;;;;;;;;;6.70;92.70;;;;;;5050461;28;19916;-75
2022/11/14 04:43:15;;;;;;;;;;;6.70;92.70;;;;;;5073294;28;19923;-75
2022/11/14 04:45:41;;;;;;;;;;;6.70;92.70;;;;;;5087225;28;19912;-75
2022/11/14 04:48:06;;;;;;;;;;;6.70;92.70;;;;;;5076589;28;20693;-75
2022/11/14 04:50:32;;;;;;;;;;;6.70;92.60;;;;;;5071138;28;19913;-75
2022/11/14 04:52:57;;;;;;;;;;;6.70;92.60;;;;;;5046484;28;19912;-75
2022/11/14 04:55:23;;;;;;;;;;;6.70;92.70;;;;;;5046862;28;19913;-75
2022/11/14 04:57:52;;;;;;;;;;;6.70;92.60;;;;;;5046500;28;19916;-75
2022/11/14 05:00:18;;;;;;;;;;;6.60;92.60;;;;;;5053825;28;20279;-75
2022/11/14 05:02:43;;;;;;;;;;;6.60;92.60;;;;;;5079047;28;19916;-75
2022/11/14 05:05:09;;;;;;;;;;;6.60;92.60;;;;;;5085894;28;19933;-75
2022/11/14 05:07:34;;;;;;;;;;;6.60;92.60;;;;;;5086221;28;19912;-74
2022/11/14 05:10:00;;;;;;;;;;;6.60;92.60;;;;;;5057324;28;19991;-75
2022/11/14 05:12:25;;;;;;;;;;;6.60;92.60;;;;;;5045725;28;19928;-75
2022/11/14 05:14:51;;;;;;;;;;;6.60;92.60;;;;;;5059758;28;19913;-75
2022/11/14 05:17:16;;;;;;;;;;;6.60;92.60;;;;;;5066055;28;19986;-75
2022/11/14 05:19:41;;;;;;;;;;;6.60;92.60;;;;;;5075956;28;19916;-75
2022/11/14 05:22:07;;;;;;;;;;;6.60;92.60;;;;;;5085725;28;19962;-75
2022/11/14 05:24:32;;;;;;;;;;;6.60;92.60;;;;;;5086329;28;19909;-75
2022/11/14 05:26:58;;;;;;;;;;;6.60;92.60;;;;;;5086052;28;19962;-75
2022/11/14 05:29:23;;;;;;;;;;;6.50;92.60;;;;;;5085320;28;19916;-75
2022/11/14 05:31:49;;;;;;;;;;;6.60;92.60;;;;;;5065723;28;19979;-75
2022/11/14 05:34:14;;;;;;;;;;;6.60;92.60;;;;;;5065878;28;19913;-75
2022/11/14 05:36:40;;;;;;;;;;;6.60;92.60;;;;;;5066702;28;20269;-75
2022/11/14 05:39:05;;;;;;;;;;;6.60;92.60;;;;;;5065220;28;19966;-75
2022/11/14 05:41:31;;;;;;;;;;;6.50;92.50;;;;;;5064487;28;19934;-74
2022/11/14 05:43:56;;;;;;;;;;;6.50;92.50;;;;;;5065795;28;19917;-75
2022/11/14 05:46:22;;;;;;;;;;;6.50;92.50;;;;;;5065949;28;19917;-75
2022/11/14 05:48:47;;;;;;;;;;;6.50;92.60;;;;;;5067408;28;20517;-75
2022/11/14 05:51:13;;;;;;;;;;;6.50;92.50;;;;;;5071823;28;19917;-75
2022/11/14 05:53:39;;;;;;;;;;;6.50;92.60;;;;;;5066895;28;19913;-75
2022/11/14 05:56:06;;;;;;;;;;;6.50;92.60;;;;;;5065214;28;19991;-75
2022/11/14 05:58:32;;;;;;;;;;;6.50;92.60;;;;;;5065945;28;20256;-76
2022/11/14 06:01:02;;;;;;;;;;;6.50;92.60;;;;;;5065555;28;19913;-75
2022/11/14 06:03:34;;;;;;;;;;;6.50;92.60;;;;;;5065513;28;19912;-75
2022/11/14 06:06:04;;;;;;;;;;;6.50;92.60;;;;;;5065385;28;19922;-75
2022/11/14 06:08:30;;;;;;;;;;;6.50;92.50;;;;;;5065123;28;20431;-75
2022/11/14 06:10:55;;;;;;;;;;;6.50;92.50;;;;;;5044958;28;19969;-75
2022/11/14 06:13:23;;;;;;;;;;;6.40;92.50;;;;;;5045384;28;19924;-75
2022/11/14 06:15:49;;;;;;;;;;;6.50;92.60;;;;;;5045426;28;19991;-75
2022/11/14 06:18:14;;;;;;;;;;;6.40;92.50;;;;;;5059689;28;19921;-75
2022/11/14 06:20:40;;;;;;;;;;;6.40;92.50;;;;;;5082214;28;19919;-75
2022/11/14 06:23:05;;;;;;;;;;;6.40;92.50;;;;;;5084105;28;19934;-76
2022/11/14 06:25:31;;;;;;;;;;;6.40;92.50;;;;;;5076175;28;20376;-75
2022/11/14 06:27:57;;;;;;;;;;;6.40;92.50;;;;;;5069133;28;19913;-76
2022/11/14 06:30:22;;;;;;;;;;;6.40;92.50;;;;;;5068064;28;19919;-75
2022/11/14 06:32:48;;;;;;;;;;;6.40;92.50;;;;;;5069858;28;19908;-75
2022/11/14 06:35:13;;;;;;;;;;;6.40;92.50;;;;;;5069415;28;20062;-75
2022/11/14 06:37:39;;;;;;;;;;;6.40;92.50;;;;;;5069759;28;19916;-75
2022/11/14 06:40:05;;;;;;;;;;;6.40;92.50;;;;;;5068856;28;19912;-75
2022/11/14 06:42:30;;;;;;;;;;;6.40;92.50;;;;;;5070352;28;20512;-75
2022/11/14 06:44:56;;;;;;;;;;;6.40;92.50;;;;;;5068780;28;19919;-75
2022/11/14 06:47:21;;;;;;;;;;;6.40;92.50;;;;;;5067697;28;19919;-75
2022/11/14 06:49:46;;;;;;;;;;;6.40;92.50;;;;;;5076369;28;19916;-75
2022/11/14 06:52:12;;;;;;;;;;;6.40;92.50;;;;;;5068745;28;19912;-75
2022/11/14 06:54:37;;;;;;;;;;;6.30;92.40;;;;;;5088882;28;19912;-75
2022/11/14 06:57:03;;;;;;;;;;;6.40;92.50;;;;;;5089370;28;20580;-75
2022/11/14 06:59:28;;;;;;;;;;;6.30;92.50;;;;;;5086647;28;20265;-75
2022/11/14 07:01:54;;;;;;;;;;;6.30;92.40;;;;;;5048516;28;20007;-75
2022/11/14 07:04:19;;;;;;;;;;;6.40;92.40;;;;;;5048806;28;19958;-75
2022/11/14 07:06:45;;;;;;;;;;;6.30;92.40;;;;;;5055534;28;19916;-75
2022/11/14 07:09:10;;;;;;;;;;;6.40;92.50;;;;;;5073611;28;19917;-75
2022/11/14 07:11:36;;;;;;;;;;;6.30;92.40;;;;;;5048079;28;19920;-75
2022/11/14 07:14:02;;;;;;;;;;;6.30;92.40;;;;;;5047078;28;20059;-76
2022/11/14 07:16:29;;;;;;;;;;;6.30;92.40;;;;;;5061714;28;19917;-75
2022/11/14 07:18:55;;;;;;;;;;;6.30;92.40;;;;;;5070854;28;19951;-75
2022/11/14 07:21:21;;;;;;;;;;;6.30;92.40;;;;;;5077731;28;19959;-75
2022/11/14 07:23:46;;;;;;;;;;;6.30;92.40;;;;;;5073905;28;20251;-75
2022/11/14 07:26:12;;;;;;;;;;;6.30;92.40;;;;;;5088155;28;19920;-75
2022/11/14 07:28:38;;;;;;;;;;;6.30;92.40;;;;;;5081327;28;20542;-75
2022/11/14 07:31:04;;;;;;;;;;;6.30;92.40;;;;;;5066984;28;20270;-75
2022/11/14 07:33:30;;;;;;;;;;;6.30;92.40;;;;;;5066868;28;19920;-76
2022/11/14 07:35:56;;;;;;;;;;;6.30;92.70;;;;;;5065574;28;19913;-75
2022/11/14 07:38:21;;;;;;;;;;;6.30;92.40;;;;;;5067964;28;19916;-75
2022/11/14 07:40:53;;;;;;;;;;;6.30;92.40;;;;;;5076326;28;19916;-75
2022/11/14 07:43:19;;;;;;;;;;;6.30;92.40;;;;;;5087203;28;19923;-75
2022/11/14 07:45:44;;;;;;;;;;;6.30;92.40;;;;;;5088169;28;19916;-75
2022/11/14 07:48:10;;;;;;;;;;;6.30;92.40;;;;;;5087976;28;19985;-75
2022/11/14 07:50:35;;;;;;;;;;;6.30;92.70;;;;;;5079189;28;20639;-75
2022/11/14 07:53:01;;;;;;;;;;;6.30;92.40;;;;;;5066643;28;19993;-75
2022/11/14 07:55:26;;;;;;;;;;;6.30;92.40;;;;;;5067850;28;19916;-75
2022/11/14 07:57:53;;;;;;;;;;;6.40;92.40;;;;;;5068896;28;19920;-75
2022/11/14 08:00:18;;;;;;;;;;;6.30;92.40;;;;;;5067267;28;20347;-75
2022/11/14 08:02:45;;;;;;;;;;;6.30;92.40;;;;;;5067389;28;19912;-75
2022/11/14 08:05:10;;;;;;;;;;;6.30;92.40;;;;;;5067182;28;19958;-75
2022/11/14 08:07:35;;;;;;;;;;;6.40;92.50;;;;;;5067522;28;19912;-75
2022/11/14 08:10:01;;;;;;;;;;;6.40;92.50;;;;;;5068107;28;19916;-75
2022/11/14 08:12:26;;;;;;;;;;;6.40;92.50;;;;;;5067342;28;19925;-75
2022/11/14 08:14:52;;;;;;;;;;;6.40;92.40;;;;;;5067583;28;19912;-75
2022/11/14 08:17:19;;;;;;;;;;;6.40;92.40;;;;;;5067307;28;20418;-75
2022/11/14 08:19:44;;;;;;;;;;;6.40;92.40;;;;;;5057434;28;19920;-76
2022/11/14 08:22:10;;;;;;;;;;;6.40;92.50;;;;;;5054894;28;19921;-75
2022/11/14 08:24:35;;;;;;;;;;;6.40;92.50;;;;;;5075769;28;20291;-75
2022/11/14 08:27:01;;;;;;;;;;;6.40;92.40;;;;;;5077342;28;19916;-75
2022/11/14 08:29:26;;;;;;;;;;;6.40;92.40;;;;;;5061657;28;19919;-75
2022/11/14 08:31:51;;;;;;;;;;;6.40;92.40;;;;;;5058424;28;19918;-75
2022/11/14 08:34:17;;;;;;;;;;;6.40;92.40;;;;;;5053019;28;19913;-76
2022/11/14 08:36:42;;;;;;;;;;;6.50;92.50;;;;;;5046924;28;20062;-75
2022/11/14 08:39:08;;;;;;;;;;;6.50;92.50;;;;;;5053782;28;19917;-75
2022/11/14 08:41:33;;;;;;;;;;;6.50;92.50;;;;;;5067556;28;20006;-75
2022/11/14 08:43:59;;;;;;;;;;;6.50;92.50;;;;;;5066730;28;19912;-75
2022/11/14 08:46:24;;;;;;;;;;;6.50;92.50;;;;;;5063954;28;19908;-75
2022/11/14 08:48:50;;;;;;;;;;;6.50;92.50;;;;;;5056799;28;19913;-75
2022/11/14 08:51:15;;;;;;;;;;;6.60;92.50;;;;;;5066221;28;19919;-76
2022/11/14 08:53:41;;;;;;;;;;;6.60;92.50;;;;;;5065146;28;20449;-75
2022/11/14 08:56:08;;;;;;;;;;;6.60;92.50;;;;;;5067800;28;19916;-75
2022/11/14 08:58:33;;;;;;;;;;;6.60;92.50;;;;;;5086619;28;19920;-76
2022/11/14 09:01:00;;;;;;;;;;;6.60;92.50;;;;;;5059188;28;19920;-76
2022/11/14 09:03:26;;;;;;;;;;;6.60;92.50;;;;;;5046410;28;19913;-76
2022/11/14 09:05:51;;;;;;;;;;;6.60;92.50;;;;;;5046284;28;19913;-75
2022/11/14 09:08:17;;;;;;;;;;;6.60;92.50;;;;;;5046064;28;19922;-75
2022/11/14 09:10:43;;;;;;;;;;;6.70;92.60;;;;;;5044702;28;19967;-76
2022/11/14 09:13:09;;;;;;;;;;;6.70;92.60;;;;;;5057228;28;20011;-76
2022/11/14 09:15:35;;;;;;;;;;;6.70;92.50;;;;;;5085895;28;20010;-75
2022/11/14 09:18:00;;;;;;;;;;;6.70;92.50;;;;;;5085708;28;19923;-76
2022/11/14 09:20:26;;;;;;;;;;;6.80;92.50;;;;;;5085583;28;20085;-76
2022/11/14 09:22:52;;;;;;;;;;;6.80;92.50;;;;;;5085966;28;19912;-76
2022/11/14 09:25:18;;;;;;;;;;;6.80;92.60;;;;;;5064296;28;19920;-76
2022/11/14 09:27:44;;;;;;;;;;;6.80;92.50;;;;;;5064551;28;19958;-76
2022/11/14 09:30:10;;;;;;;;;;;6.80;92.60;;;;;;5065917;28;20361;-76
2022/11/14 09:32:35;;;;;;;;;;;6.90;92.60;;;;;;5065080;28;19958;-76
2022/11/14 09:35:00;;;;;;;;;;;6.90;92.60;;;;;;5064948;28;19920;-76
2022/11/14 09:37:26;;;;;;;;;;;6.90;92.70;;;;;;5065058;28;19920;-76
2022/11/14 09:39:51;;;;;;;;;;;6.90;92.60;;;;;;5064594;28;19916;-75
2022/11/14 09:42:17;;;;;;;;;;;7.00;92.70;;;;;;5064749;28;20573;-76
2022/11/14 09:45:01;;;;;;;;;;;7.00;92.80;;;;;;5073676;28;19923;-76
2022/11/14 09:47:39;;;;;;;;;;;7.10;92.70;;;;;;5084874;28;19931;-76
2022/11/14 09:50:25;;;;;;;;;;;7.10;92.70;;;;;;5080340;28;19916;-75
2022/11/14 09:52:53;;;;;;;;;;;7.20;92.70;;;;;;5065031;28;20503;-76
2022/11/14 09:55:20;;;;;;;;;;;7.20;92.60;;;;;;5064959;28;20357;-76
2022/11/14 09:57:45;;;;;;;;;;;7.20;92.60;;;;;;5064661;28;19927;-76
2022/11/14 10:00:15;;;;;;;;;;;7.30;92.70;;;;;;5069392;28;19917;-76
2022/11/14 10:02:51;;;;;;;;;;;7.30;92.70;;;;;;5045029;28;20385;-76
2022/11/14 10:05:35;;;;;;;;;;;7.30;92.70;;;;;;5044742;28;20347;-76
2022/11/14 10:08:33;;;;;;;;;;;7.30;92.70;;;;;;5044902;28;19913;-76
2022/11/14 10:11:09;;;;;;;;;;;7.30;92.70;;;;;;5053313;28;19959;-76
2022/11/14 10:13:49;;;;;;;;;;;7.40;93.10;;;;;;5073152;28;20262;-75
2022/11/14 10:16:18;;;;;;;;;;;7.40;92.80;;;;;;5085105;28;20357;-76
2022/11/14 10:18:44;;;;;;;;;;;7.40;92.70;;;;;;5084851;28;19924;-76
2022/11/14 10:21:25;;;;;;;;;;;7.50;92.70;;;;;;5083399;28;20261;-76
2022/11/14 10:24:13;;;;;;;;;;;7.50;92.70;;;;;;5070371;28;20363;-76
2022/11/14 10:27:00;;;;;;;;;;;7.50;92.80;;;;;;5053679;28;20405;-75
2022/11/14 10:29:37;;;;;;;;;;;7.60;92.60;;;;;;5083215;28;20574;-76
2022/11/14 10:32:03;;;;;;;;;;;7.60;92.60;;;;;;5044408;28;19913;-76
2022/11/14 10:34:40;;;;;;;;;;;7.70;92.70;;;;;;5044877;28;19919;-76
2022/11/14 10:37:12;;;;;;;;;;;7.70;92.60;;;;;;5044701;28;19917;-76
2022/11/14 10:39:47;;;;;;;;;;;7.70;92.70;;;;;;5044322;28;19987;-76
2022/11/14 10:42:16;;;;;;;;;;;7.70;92.60;;;;;;5079148;28;19923;-76
2022/11/14 10:44:49;;;;;;;;;;;7.80;92.60;;;;;;5084664;28;19965;-76
2022/11/14 10:47:17;;;;;;;;;;;7.80;92.60;;;;;;5082619;28;19919;-76
2022/11/14 10:49:45;;;;;;;;;;;7.80;92.60;;;;;;5083049;28;19912;-76
2022/11/14 10:52:15;;;;;;;;;;;7.80;92.70;;;;;;5063976;28;19916;-76
2022/11/14 10:54:44;;;;;;;;;;;7.80;92.80;;;;;;5066547;28;19916;-76
2022/11/14 10:57:17;;;;;;;;;;;7.80;92.90;;;;;;5084329;28;20002;-75
2022/11/14 10:59:42;;;;;;;;;;;7.90;92.70;;;;;;5081463;28;20383;-76
2022/11/14 11:02:08;;;;;;;;;;;7.90;92.70;;;;;;5064862;28;19983;-76
2022/11/14 11:04:35;;;;;;;;;;;7.90;92.70;;;;;;5064609;28;19947;-76
2022/11/14 11:07:07;;;;;;;;;;;7.90;92.70;;;;;;5064662;28;19919;-76
2022/11/14 11:12:23;;;;;;;;;;;8.00;92.70;;;;;;5088743;28;19944;-76
2022/11/14 11:15:06;;;;;;;;;;;8.00;92.80;;;;;;5088013;28;19943;-76
2022/11/14 11:17:32;;;;;;;;;;;8.00;92.70;;;;;;5087871;28;20353;-76
2022/11/14 11:20:18;;;;;;;;;;;8.10;92.80;;;;;;5080113;28;19920;-76
2022/11/14 11:22:43;;;;;;;;;;;8.20;92.60;;;;;;5066206;28;19958;-76
2022/11/14 11:25:26;;;;;;;;;;;8.20;92.50;;;;;;5087728;28;20050;-76
2022/11/14 11:28:10;;;;;;;;;;;8.30;92.50;;;;;;5087795;28;19912;-76
2022/11/14 11:30:36;;;;;;;;;;;8.40;92.40;;;;;;5066741;28;19959;-76
2022/11/14 11:33:20;;;;;;;;;;;8.40;92.30;;;;;;5047663;28;19913;-76
2022/11/14 11:35:48;;;;;;;;;;;8.50;92.30;;;;;;5047308;28;19939;-76
2022/11/14 11:38:14;;;;;;;;;;;8.50;92.30;;;;;;5071192;28;19923;-76
2022/11/14 11:40:42;;;;;;;;;;;8.60;92.20;;;;;;5047388;28;19919;-76
2022/11/14 11:43:26;;;;;;;;;;;8.60;92.20;;;;;;5047644;28;19924;-76
2022/11/14 11:45:53;;;;;;;;;;;8.60;92.30;;;;;;5047261;28;20430;-76
2022/11/14 11:48:20;;;;;;;;;;;8.60;92.20;;;;;;5047444;28;19955;-76
2022/11/14 11:50:46;;;;;;;;;;;8.60;92.30;;;;;;5066835;28;19919;-76
2022/11/14 11:53:30;;;;;;;;;;;8.70;92.30;;;;;;5085316;28;19916;-76
2022/11/14 11:56:00;;;;;;;;;;;8.70;92.40;;;;;;5069183;28;19916;-76
2022/11/14 11:58:28;;;;;;;;;;;8.70;92.50;;;;;;5066857;28;19990;-76
2022/11/14 12:00:54;;;;;;;;;;;8.70;92.40;;;;;;5066565;28;19913;-76
2022/11/14 12:03:19;;;;;;;;;;;8.70;92.40;;;;;;5067146;28;19915;-76
2022/11/14 12:05:51;;;;;;;;;;;8.80;92.90;;;;;;5071726;28;19923;-76
2022/11/14 12:08:22;;;;;;;;;;;8.80;92.60;;;;;;5086631;28;19919;-76
2022/11/14 12:10:48;;;;;;;;;;;8.80;92.50;;;;;;5046856;28;19998;-76
2022/11/14 12:13:24;;;;;;;;;;;8.80;92.70;;;;;;5047169;28;20350;-76
2022/11/14 12:15:53;;;;;;;;;;;8.90;92.50;;;;;;5047071;28;20033;-76
2022/11/14 12:18:32;;;;;;;;;;;8.90;92.50;;;;;;5046754;28;19913;-76
2022/11/14 12:21:05;;;;;;;;;;;8.90;92.50;;;;;;5084746;28;20542;-75
2022/11/14 12:23:48;;;;;;;;;;;9.00;92.40;;;;;;5056736;28;19919;-76
2022/11/14 12:26:17;;;;;;;;;;;9.00;92.40;;;;;;5046604;28;20002;-76
2022/11/14 12:28:57;;;;;;;;;;;9.00;92.50;;;;;;5063066;28;19962;-76
2022/11/14 12:31:24;;;;;;;;;;;9.10;92.80;;;;;;5065827;28;19917;-76
2022/11/14 12:33:56;;;;;;;;;;;9.10;92.80;;;;;;5069719;28;20456;-76
2022/11/14 12:36:26;;;;;;;;;;;9.10;92.50;;;;;;5086328;28;19956;-76
2022/11/14 12:38:53;;;;;;;;;;;9.20;92.50;;;;;;5075670;28;19927;-76
2022/11/14 12:41:29;;;;;;;;;;;9.20;92.50;;;;;;5045868;28;19909;-76
2022/11/14 12:44:13;;;;;;;;;;;9.20;92.70;;;;;;5044974;28;19962;-76
2022/11/14 12:46:59;;;;;;;;;;;9.20;92.40;;;;;;5046501;28;19913;-76
2022/11/14 12:49:43;;;;;;;;;;;9.20;92.50;;;;;;5068619;28;19912;-76
2022/11/14 12:52:35;;;;;;;;;;;9.30;92.70;;;;;;5046423;28;19956;-76
2022/11/14 12:55:00;;;;;;;;;;;9.30;92.50;;;;;;5046569;28;19919;-75
2022/11/14 12:57:46;;;;;;;;;;;9.30;92.40;;;;;;5045945;28;19940;-76
2022/11/14 13:00:12;;;;;;;;;;;9.30;92.50;;;;;;5052927;28;20610;-76
2022/11/14 13:02:56;;;;;;;;;;;9.30;92.50;;;;;;5073060;28;19916;-76
2022/11/14 13:05:22;;;;;;;;;;;9.30;92.60;;;;;;5085915;28;19919;-76
2022/11/14 13:08:06;;;;;;;;;;;9.40;92.50;;;;;;5085799;28;19912;-76
2022/11/14 13:10:38;;;;;;;;;;;9.40;92.70;;;;;;5046505;28;19912;-75
2022/11/14 13:22:10;;;;;;;;;;;9.40;92.50;;;;;;5075260;28;20310;-76
2022/11/14 13:24:54;;;;;;;;;;;9.40;92.50;;;;;;5076854;28;19987;-76
2022/11/14 13:27:28;;;;;;;;;;;9.40;92.50;;;;;;5065240;28;19912;-76
2022/11/14 13:29:55;;;;;;;;;;;9.40;92.60;;;;;;5065003;28;19912;-76
2022/11/14 13:32:49;;;;;;;;;;;9.40;92.60;;;;;;5082724;28;19923;-76
2022/11/14 13:35:15;;;;;;;;;;;9.40;92.80;;;;;;5080394;28;19938;-75
2022/11/14 13:37:59;;;;;;;;;;;9.40;92.70;;;;;;5085481;28;20445;-76
2022/11/14 13:40:27;;;;;;;;;;;9.40;92.70;;;;;;5049501;28;20239;-76
2022/11/14 13:43:04;;;;;;;;;;;9.40;92.90;;;;;;5044931;28;20423;-75
2022/11/14 13:45:32;;;;;;;;;;;9.40;92.70;;;;;;5067335;28;20263;-76
2022/11/14 13:48:16;;;;;;;;;;;9.40;93.00;;;;;;5085555;28;19924;-76
2022/11/14 13:50:45;;;;;;;;;;;9.40;92.80;;;;;;5075758;28;19913;-76
2022/11/14 13:53:18;;;;;;;;;;;9.40;92.80;;;;;;5064967;28;20047;-76
2022/11/14 13:55:50;;;;;;;;;;;9.40;92.90;;;;;;5064473;28;19966;-76
2022/11/14 13:58:15;;;;;;;;;;;9.50;92.80;;;;;;5064621;28;19938;-76
2022/11/14 14:00:53;;;;;;;;;;;9.40;92.80;;;;;;5061595;28;19913;-75
2022/11/14 14:03:21;;;;;;;;;;;9.40;92.80;;;;;;5063734;28;19924;-76
2022/11/14 14:05:49;;;;;;;;;;;9.40;92.90;;;;;;5064730;28;19917;-76
2022/11/14 14:08:30;;;;;;;;;;;9.50;93.00;;;;;;5064305;28;19920;-76
2022/11/14 14:11:05;;;;;;;;;;;9.40;93.00;;;;;;5044014;28;19928;-76
2022/11/14 14:13:42;;;;;;;;;;;9.50;93.00;;;;;;5062478;28;20026;-76
2022/11/14 14:16:33;;;;;;;;;;;9.40;92.90;;;;;;5064786;28;19917;-76
2022/11/14 14:19:15;;;;;;;;;;;9.40;92.90;;;;;;5068008;28;19923;-76
2022/11/14 14:21:47;;;;;;;;;;;9.40;93.00;;;;;;5084909;28;19989;-76
2022/11/14 14:24:30;;;;;;;;;;;9.40;93.00;;;;;;5084823;28;19919;-76
2022/11/14 14:27:14;;;;;;;;;;;9.50;93.00;;;;;;5070674;28;19927;-76
2022/11/14 14:29:46;;;;;;;;;;;9.50;93.00;;;;;;5061695;28;19923;-75
2022/11/14 14:32:15;;;;;;;;;;;9.50;93.00;;;;;;5064633;28;20467;-76
2022/11/14 14:34:41;;;;;;;;;;;9.50;93.10;;;;;;5064958;28;19966;-76
2022/11/14 14:37:17;;;;;;;;;;;9.50;93.00;;;;;;5064544;28;19920;-76
2022/11/14 14:39:54;;;;;;;;;;;9.50;93.10;;;;;;5063130;28;19912;-76
2022/11/14 14:42:20;;;;;;;;;;;9.50;93.20;;;;;;5076232;28;19916;-76
2022/11/14 14:44:47;;;;;;;;;;;9.50;93.20;;;;;;5084885;28;20030;-76
2022/11/14 14:47:15;;;;;;;;;;;9.50;93.20;;;;;;5088337;28;19956;-76
2022/11/14 14:49:41;;;;;;;;;;;9.50;93.20;;;;;;5086641;28;19939;-76